createdAt,value
2023-05-21T00:02:05.562Z,17.50
2023-05-21T00:04:33.747Z,17.50
2023-05-21T00:07:00.922Z,17.40
2023-05-21T00:09:34.475Z,17.50
2023-05-21T00:12:01.477Z,17.40
2023-05-21T00:14:28.211Z,17.40
2023-05-21T00:16:54.958Z,17.30
2023-05-21T00:19:21.797Z,17.30
2023-05-21T00:21:48.679Z,17.30
2023-05-21T00:24:15.669Z,17.30
2023-05-21T00:26:42.597Z,17.30
2023-05-21T00:29:09.445Z,17.30
2023-05-21T00:31:36.267Z,17.20
2023-05-21T00:34:06.055Z,17.20
2023-05-21T00:36:34.616Z,17.20
2023-05-21T00:39:02.439Z,17.20
2023-05-21T00:41:30.178Z,17.20
2023-05-21T00:44:00.331Z,17.10
2023-05-21T00:46:30.398Z,17.20
2023-05-21T00:48:58.334Z,17.20
2023-05-21T00:51:30.177Z,17.20
2023-05-21T00:53:57.981Z,17.10
2023-05-21T00:56:27.117Z,17.20
2023-05-21T00:58:58.347Z,17.10
2023-05-21T01:01:33.686Z,17.10
2023-05-21T01:04:01.756Z,17.10
2023-05-21T01:06:28.570Z,17.00
2023-05-21T01:08:57.174Z,17.00
2023-05-21T01:11:42.496Z,17.10
2023-05-21T01:14:13.126Z,17.00
2023-05-21T01:16:43.695Z,17.00
2023-05-21T01:19:19.088Z,17.00
2023-05-21T01:22:00.228Z,16.90
2023-05-21T01:24:27.126Z,16.90
2023-05-21T01:26:53.928Z,16.90
2023-05-21T01:29:20.826Z,16.90
2023-05-21T01:32:01.288Z,16.90
2023-05-21T01:34:42.100Z,16.80
2023-05-21T01:37:25.629Z,16.90
2023-05-21T01:40:03.894Z,16.90
2023-05-21T01:42:32.946Z,16.90
2023-05-21T01:45:06.084Z,16.60
2023-05-21T01:47:36.815Z,16.70
2023-05-21T01:50:06.395Z,16.80
2023-05-21T01:52:33.303Z,16.70
2023-05-21T01:55:00.353Z,16.70
2023-05-21T01:57:32.391Z,16.70
2023-05-21T01:59:59.503Z,16.70
2023-05-21T02:02:26.387Z,16.70
2023-05-21T02:04:53.223Z,16.70
2023-05-21T02:07:20.016Z,16.70
2023-05-21T02:09:46.884Z,16.70
2023-05-21T02:12:16.736Z,16.80
2023-05-21T02:14:43.506Z,16.80
2023-05-21T02:17:10.327Z,16.80
2023-05-21T02:19:37.193Z,16.70
2023-05-21T02:22:07.187Z,16.70
2023-05-21T02:24:33.974Z,16.70
2023-05-21T02:27:00.706Z,16.60
2023-05-21T02:29:27.468Z,16.60
2023-05-21T02:31:54.739Z,16.70
2023-05-21T02:34:21.597Z,16.60
2023-05-21T02:36:48.519Z,16.60
2023-05-21T02:39:22.021Z,16.40
2023-05-21T02:41:48.851Z,16.50
2023-05-21T02:44:15.828Z,16.50
2023-05-21T02:46:42.647Z,16.50
2023-05-21T02:49:09.430Z,16.50
2023-05-21T02:51:38.976Z,16.50
2023-05-21T02:54:11.471Z,16.40
2023-05-21T02:56:38.331Z,16.50
2023-05-21T02:59:08.168Z,16.30
2023-05-21T03:01:35.151Z,16.40
2023-05-21T03:04:04.040Z,16.40
2023-05-21T03:06:32.581Z,16.40
2023-05-21T03:09:02.030Z,16.50
2023-05-21T03:11:36.072Z,16.40
2023-05-21T03:14:02.920Z,16.50
2023-05-21T03:16:29.750Z,16.50
2023-05-21T03:18:56.556Z,16.40
2023-05-21T03:21:23.431Z,16.40
2023-05-21T03:23:51.330Z,16.30
2023-05-21T03:26:28.091Z,16.30
2023-05-21T03:28:56.358Z,16.30
2023-05-21T03:31:25.113Z,16.40
2023-05-21T03:33:52.666Z,16.30
2023-05-21T03:36:20.050Z,16.20
2023-05-21T03:38:46.894Z,16.20
2023-05-21T03:41:13.792Z,16.20
2023-05-21T03:43:40.637Z,16.20
2023-05-21T03:46:07.473Z,16.30
2023-05-21T03:48:36.793Z,16.20
2023-05-21T03:51:04.041Z,16.20
2023-05-21T03:53:30.849Z,16.20
2023-05-21T03:55:57.638Z,16.20
2023-05-21T03:58:24.766Z,16.10
2023-05-21T04:00:51.548Z,16.20
2023-05-21T04:03:18.594Z,16.10
2023-05-21T04:05:45.776Z,16.10
2023-05-21T04:08:12.546Z,16.00
2023-05-21T04:10:42.405Z,16.10
2023-05-21T04:13:12.055Z,16.00
2023-05-21T04:15:39.118Z,16.10
2023-05-21T04:18:07.278Z,16.00
2023-05-21T04:20:34.125Z,15.90
2023-05-21T04:23:03.571Z,16.00
2023-05-21T04:25:34.126Z,16.00
2023-05-21T04:28:01.042Z,15.90
2023-05-21T04:30:27.904Z,15.90
2023-05-21T04:32:55.268Z,15.80
2023-05-21T04:35:23.384Z,15.80
2023-05-21T04:37:50.473Z,15.70
2023-05-21T04:40:24.512Z,15.90
2023-05-21T04:42:51.585Z,15.90
2023-05-21T04:45:24.607Z,15.90
2023-05-21T04:47:54.611Z,15.90
2023-05-21T04:50:23.188Z,15.90
2023-05-21T04:52:54.755Z,15.80
2023-05-21T04:55:24.889Z,15.80
2023-05-21T04:57:52.711Z,15.80
2023-05-21T05:00:19.945Z,15.80
2023-05-21T05:02:46.812Z,15.90
2023-05-21T05:05:13.664Z,15.90
2023-05-21T05:07:40.808Z,15.90
2023-05-21T05:10:08.372Z,15.90
2023-05-21T05:12:35.197Z,16.00
2023-05-21T05:15:04.178Z,15.90
2023-05-21T05:17:30.967Z,15.90
2023-05-21T05:20:00.342Z,15.90
2023-05-21T05:22:27.227Z,15.90
2023-05-21T05:24:56.591Z,15.80
2023-05-21T05:27:23.428Z,15.80
2023-05-21T05:29:50.167Z,15.80
2023-05-21T05:32:24.688Z,15.80
2023-05-21T05:34:51.616Z,15.90
2023-05-21T05:37:18.440Z,15.80
2023-05-21T05:39:45.198Z,15.80
2023-05-21T05:42:11.944Z,15.80
2023-05-21T05:44:38.722Z,15.80
2023-05-21T05:47:10.618Z,15.80
2023-05-21T05:49:37.759Z,15.80
2023-05-21T05:52:05.085Z,15.70
2023-05-21T05:54:31.948Z,15.70
2023-05-21T05:56:58.773Z,15.80
2023-05-21T05:59:28.667Z,15.90
2023-05-21T06:01:56.505Z,15.90
2023-05-21T06:04:23.309Z,15.90
2023-05-21T06:06:50.025Z,16.00
2023-05-21T06:09:16.828Z,15.90
2023-05-21T06:11:43.772Z,16.00
2023-05-21T06:14:10.562Z,16.10
2023-05-21T06:16:40.474Z,16.30
2023-05-21T06:19:07.334Z,16.20
2023-05-21T06:21:34.292Z,16.20
2023-05-21T06:24:01.146Z,16.20
2023-05-21T06:26:27.944Z,16.20
2023-05-21T06:28:54.677Z,16.20
2023-05-21T06:31:22.448Z,16.30
2023-05-21T06:33:50.068Z,16.30
2023-05-21T06:36:16.993Z,16.40
2023-05-21T06:38:43.776Z,16.40
2023-05-21T06:41:10.922Z,16.50
2023-05-21T06:43:37.696Z,16.50
2023-05-21T06:46:04.564Z,16.70
2023-05-21T06:48:33.514Z,16.70
2023-05-21T06:51:00.320Z,16.80
2023-05-21T06:53:30.182Z,16.80
2023-05-21T06:55:57.368Z,17.00
2023-05-21T06:58:24.181Z,17.00
2023-05-21T07:00:51.015Z,17.00
2023-05-21T07:03:18.041Z,17.10
2023-05-21T07:05:44.939Z,17.00
2023-05-21T07:08:12.314Z,17.10
2023-05-21T07:10:39.266Z,17.20
2023-05-21T07:13:06.236Z,17.10
2023-05-21T07:15:33.095Z,17.20
2023-05-21T07:17:59.986Z,17.20
2023-05-21T07:20:26.912Z,17.30
2023-05-21T07:22:53.630Z,17.40
2023-05-21T07:25:20.641Z,17.50
2023-05-21T07:27:47.359Z,17.40
2023-05-21T07:30:14.979Z,17.40
2023-05-21T07:32:42.048Z,17.50
2023-05-21T07:35:09.354Z,17.50
2023-05-21T07:37:36.294Z,17.50
2023-05-21T07:40:04.100Z,17.60
2023-05-21T07:42:31.209Z,17.60
2023-05-21T07:44:58.007Z,17.70
2023-05-21T07:47:24.903Z,17.70
2023-05-21T07:49:51.814Z,17.80
2023-05-21T07:52:18.702Z,17.90
2023-05-21T07:54:45.624Z,18.00
2023-05-21T07:57:18.765Z,18.00
2023-05-21T07:59:45.605Z,18.10
2023-05-21T08:02:12.508Z,18.10
2023-05-21T08:04:41.131Z,18.00
2023-05-21T08:07:11.758Z,18.00
2023-05-21T08:09:38.586Z,18.10
2023-05-21T08:12:08.528Z,18.10
2023-05-21T08:14:35.390Z,18.20
2023-05-21T08:17:02.273Z,18.10
2023-05-21T08:19:29.094Z,18.20
2023-05-21T08:21:56.135Z,18.30
2023-05-21T08:24:24.314Z,18.30
2023-05-21T08:26:58.707Z,18.40
2023-05-21T08:29:25.850Z,18.40
2023-05-21T08:31:52.750Z,18.50
2023-05-21T08:34:19.659Z,18.50
2023-05-21T08:36:47.884Z,18.50
2023-05-21T08:39:15.103Z,18.50
2023-05-21T08:41:53.868Z,18.60
2023-05-21T08:44:25.680Z,18.70
2023-05-21T08:46:57.062Z,18.90
2023-05-21T08:49:30.767Z,18.80
2023-05-21T08:51:58.873Z,18.90
2023-05-21T08:54:25.939Z,18.90
2023-05-21T08:56:53.675Z,19.10
2023-05-21T08:59:22.997Z,19.10
2023-05-21T09:01:53.040Z,19.00
2023-05-21T09:04:21.900Z,19.00
2023-05-21T09:06:49.746Z,18.90
2023-05-21T09:09:34.128Z,18.90
2023-05-21T09:12:01.292Z,18.90
2023-05-21T09:14:29.266Z,19.00
2023-05-21T09:16:56.365Z,19.10
2023-05-21T09:19:23.575Z,19.00
2023-05-21T09:21:53.520Z,19.20
2023-05-21T09:24:24.999Z,19.20
2023-05-21T09:26:52.434Z,19.30
2023-05-21T09:29:21.696Z,19.50
2023-05-21T09:31:51.658Z,19.60
2023-05-21T09:34:18.478Z,19.60
2023-05-21T09:36:46.181Z,19.80
2023-05-21T09:39:28.072Z,20.00
2023-05-21T09:41:57.789Z,20.00
2023-05-21T09:44:24.680Z,20.10
2023-05-21T09:46:57.704Z,20.00
2023-05-21T09:49:26.603Z,20.20
2023-05-21T09:51:57.849Z,20.60
2023-05-21T09:54:30.769Z,20.80
2023-05-21T09:56:57.664Z,21.00
2023-05-21T09:59:35.244Z,20.80
2023-05-21T10:02:02.702Z,20.70
2023-05-21T10:04:31.584Z,20.70
2023-05-21T10:07:00.722Z,20.70
2023-05-21T10:09:30.252Z,20.70
2023-05-21T10:11:58.873Z,20.80
2023-05-21T10:14:29.827Z,20.80
2023-05-21T10:16:57.232Z,21.00
2023-05-21T10:19:27.848Z,21.10
2023-05-21T10:21:57.147Z,21.30
2023-05-21T10:24:25.276Z,21.60
2023-05-21T10:26:52.780Z,21.50
2023-05-21T10:29:21.167Z,21.20
2023-05-21T10:31:50.568Z,21.30
2023-05-21T10:34:23.266Z,21.60
2023-05-21T10:36:52.610Z,21.70
2023-05-21T10:39:22.153Z,21.60
2023-05-21T10:42:31.108Z,21.70
2023-05-21T10:45:34.877Z,22.10
2023-05-21T10:48:28.280Z,22.60
2023-05-21T10:51:16.065Z,22.50
2023-05-21T10:54:44.679Z,22.80
2023-05-21T10:57:48.256Z,22.90
2023-05-21T11:00:18.322Z,23.00
2023-05-21T11:02:48.873Z,22.60
2023-05-21T11:05:15.856Z,22.50
2023-05-21T11:07:58.621Z,21.80
2023-05-21T11:10:40.663Z,21.80
2023-05-21T11:13:16.295Z,21.80
2023-05-21T11:15:58.656Z,21.60
2023-05-21T11:18:45.399Z,21.40
2023-05-21T11:21:18.576Z,21.60
2023-05-21T11:23:55.348Z,21.90
2023-05-21T11:26:26.516Z,22.10
2023-05-21T11:29:06.427Z,22.10
2023-05-21T11:31:38.951Z,21.80
2023-05-21T11:34:28.460Z,21.50
2023-05-21T11:37:31.231Z,21.90
2023-05-21T11:40:16.832Z,21.70
2023-05-21T11:42:48.419Z,21.90
2023-05-21T11:45:32.803Z,21.80
2023-05-21T11:48:00.596Z,21.90
2023-05-21T11:50:30.516Z,22.00
2023-05-21T11:53:01.847Z,22.30
2023-05-21T11:55:28.736Z,22.20
2023-05-21T11:57:55.751Z,22.10
2023-05-21T12:00:23.226Z,22.10
2023-05-21T12:02:54.342Z,22.30
2023-05-21T12:05:21.862Z,22.40
2023-05-21T12:07:52.479Z,22.30
2023-05-21T12:10:23.896Z,22.50
2023-05-21T12:12:56.288Z,22.60
2023-05-21T12:15:27.040Z,22.70
2023-05-21T12:17:55.055Z,22.50
2023-05-21T12:20:22.911Z,22.70
2023-05-21T12:22:52.957Z,22.90
2023-05-21T12:25:21.561Z,23.00
2023-05-21T12:27:52.837Z,23.10
2023-05-21T12:30:21.273Z,23.10
2023-05-21T12:32:49.324Z,23.10
2023-05-21T12:35:26.527Z,23.00
2023-05-21T12:37:53.727Z,22.80
2023-05-21T12:40:36.168Z,22.70
2023-05-21T12:43:04.079Z,22.60
2023-05-21T12:45:37.139Z,22.70
2023-05-21T12:48:04.333Z,22.30
2023-05-21T12:50:33.000Z,22.40
2023-05-21T12:52:59.878Z,22.40
2023-05-21T12:55:26.772Z,22.40
2023-05-21T12:58:08.808Z,22.70
2023-05-21T13:00:37.006Z,22.60
2023-05-21T13:03:07.212Z,22.70
2023-05-21T13:05:34.625Z,22.70
2023-05-21T13:08:02.669Z,22.90
2023-05-21T13:10:29.522Z,23.10
2023-05-21T13:12:56.503Z,22.90
2023-05-21T13:15:23.383Z,22.70
2023-05-21T13:17:51.590Z,22.90
2023-05-21T13:20:21.427Z,23.10
2023-05-21T13:22:51.473Z,23.00
2023-05-21T13:25:24.686Z,23.20
2023-05-21T13:27:53.057Z,23.10
2023-05-21T13:30:21.695Z,23.40
2023-05-21T13:32:49.094Z,23.10
2023-05-21T13:35:17.121Z,23.10
2023-05-21T13:37:44.815Z,23.00
2023-05-21T13:40:15.436Z,23.20
2023-05-21T13:42:45.081Z,23.10
2023-05-21T13:45:20.771Z,23.10
2023-05-21T13:47:48.716Z,23.30
2023-05-21T13:50:16.572Z,23.40
2023-05-21T13:52:45.969Z,23.30
2023-05-21T13:55:15.831Z,23.30
2023-05-21T13:57:43.341Z,23.70
2023-05-21T14:00:14.028Z,23.80
2023-05-21T14:02:43.363Z,23.80
2023-05-21T14:05:11.508Z,23.80
2023-05-21T14:07:39.780Z,23.70
2023-05-21T14:10:07.450Z,24.00
2023-05-21T14:12:34.644Z,23.80
2023-05-21T14:15:01.487Z,23.90
2023-05-21T14:17:28.344Z,24.00
2023-05-21T14:19:55.879Z,23.80
2023-05-21T14:22:22.902Z,23.80
2023-05-21T14:24:49.932Z,23.70
2023-05-21T14:27:17.058Z,23.90
2023-05-21T14:29:44.960Z,24.20
2023-05-21T14:32:11.836Z,24.30
2023-05-21T14:34:40.318Z,24.10
2023-05-21T14:37:07.174Z,24.10
2023-05-21T14:39:35.742Z,24.40
2023-05-21T14:42:06.194Z,24.20
2023-05-21T14:44:32.952Z,24.10
2023-05-21T14:47:01.938Z,24.30
2023-05-21T14:49:28.798Z,24.40
2023-05-21T14:51:55.705Z,24.30
2023-05-21T14:54:22.542Z,24.40
2023-05-21T14:56:49.408Z,24.50
2023-05-21T14:59:16.200Z,24.20
2023-05-21T15:01:43.489Z,24.40
2023-05-21T15:04:10.750Z,24.60
2023-05-21T15:06:38.255Z,24.50
2023-05-21T15:09:06.205Z,24.20
2023-05-21T15:11:34.050Z,24.30
2023-05-21T15:14:00.884Z,24.10
2023-05-21T15:16:27.768Z,23.90
2023-05-21T15:18:56.867Z,24.00
2023-05-21T15:21:27.223Z,24.00
2023-05-21T15:23:54.970Z,24.10
2023-05-21T15:26:22.763Z,24.20
2023-05-21T15:28:49.593Z,24.10
2023-05-21T15:31:16.521Z,23.80
2023-05-21T15:33:43.423Z,23.60
2023-05-21T15:36:10.421Z,23.70
2023-05-21T15:38:40.108Z,23.70
2023-05-21T15:41:07.252Z,23.70
2023-05-21T15:43:43.485Z,23.30
2023-05-21T15:46:11.142Z,23.20
2023-05-21T15:48:38.274Z,23.20
2023-05-21T15:51:06.492Z,23.40
2023-05-21T15:53:33.365Z,23.60
2023-05-21T15:56:02.024Z,23.60
2023-05-21T15:58:31.076Z,23.40
2023-05-21T16:01:02.059Z,23.20
2023-05-21T16:03:29.012Z,23.40
2023-05-21T16:05:55.954Z,23.40
2023-05-21T16:08:23.000Z,23.50
2023-05-21T16:10:49.833Z,23.80
2023-05-21T16:13:16.652Z,23.80
2023-05-21T16:15:43.460Z,23.50
2023-05-21T16:18:18.411Z,23.50
2023-05-21T16:20:45.209Z,23.60
2023-05-21T16:23:12.819Z,23.60
2023-05-21T16:25:44.920Z,23.40
2023-05-21T16:28:12.298Z,23.50
2023-05-21T16:30:41.200Z,23.40
2023-05-21T16:33:22.576Z,23.40
2023-05-21T16:35:49.471Z,23.60
2023-05-21T16:38:16.358Z,23.70
2023-05-21T16:40:45.453Z,23.40
2023-05-21T16:43:12.288Z,23.30
2023-05-21T16:45:45.648Z,23.10
2023-05-21T16:48:13.527Z,23.20
2023-05-21T16:50:40.970Z,23.20
2023-05-21T16:53:09.703Z,23.10
2023-05-21T16:55:38.251Z,23.10
2023-05-21T16:58:06.440Z,23.20
2023-05-21T17:00:34.140Z,23.20
2023-05-21T17:03:01.072Z,23.10
2023-05-21T17:05:28.090Z,22.90
2023-05-21T17:08:03.098Z,22.90
2023-05-21T17:10:33.308Z,22.90
2023-05-21T17:13:09.778Z,22.90
2023-05-21T17:15:44.999Z,22.80
2023-05-21T17:18:12.027Z,22.80
2023-05-21T17:20:38.975Z,22.90
2023-05-21T17:23:05.887Z,22.70
2023-05-21T17:25:35.673Z,22.70
2023-05-21T17:28:02.679Z,22.50
2023-05-21T17:30:29.475Z,22.40
2023-05-21T17:32:56.467Z,22.20
2023-05-21T17:35:23.944Z,22.10
2023-05-21T17:37:53.161Z,22.20
2023-05-21T17:40:21.289Z,22.40
2023-05-21T17:42:48.513Z,22.30
2023-05-21T17:45:15.510Z,22.20
2023-05-21T17:47:42.396Z,22.00
2023-05-21T17:50:09.775Z,21.80
2023-05-21T17:52:36.615Z,21.80
2023-05-21T17:55:03.730Z,21.80
2023-05-21T17:57:31.871Z,21.90
2023-05-21T17:59:58.670Z,22.00
2023-05-21T18:02:27.349Z,21.90
2023-05-21T18:04:54.532Z,21.60
2023-05-21T18:07:22.548Z,21.60
2023-05-21T18:09:49.674Z,21.50
2023-05-21T18:12:16.780Z,21.50
2023-05-21T18:14:43.895Z,21.60
2023-05-21T18:17:10.846Z,21.60
2023-05-21T18:19:37.702Z,21.30
2023-05-21T18:22:05.861Z,21.40
2023-05-21T18:24:51.481Z,21.30
2023-05-21T18:27:18.364Z,21.10
2023-05-21T18:29:46.903Z,20.80
2023-05-21T18:32:17.000Z,20.90
2023-05-21T18:35:03.417Z,20.80
2023-05-21T18:37:34.384Z,20.90
2023-05-21T18:40:09.124Z,20.80
2023-05-21T18:42:35.890Z,20.60
2023-05-21T18:45:11.670Z,20.50
2023-05-21T18:47:40.194Z,20.40
2023-05-21T18:50:13.202Z,20.50
2023-05-21T18:52:40.044Z,20.60
2023-05-21T18:55:07.438Z,20.50
2023-05-21T18:57:34.867Z,20.60
2023-05-21T19:00:01.712Z,20.50
2023-05-21T19:02:29.719Z,20.40
2023-05-21T19:04:56.697Z,20.40
2023-05-21T19:07:23.538Z,20.40
2023-05-21T19:09:50.478Z,20.50
2023-05-21T19:12:17.300Z,20.40
2023-05-21T19:14:44.926Z,20.20
2023-05-21T19:17:13.576Z,20.20
2023-05-21T19:19:40.557Z,20.00
2023-05-21T19:22:08.158Z,20.10
2023-05-21T19:24:34.951Z,20.10
2023-05-21T19:27:02.163Z,20.00
2023-05-21T19:29:29.051Z,20.00
2023-05-21T19:31:58.281Z,19.90
2023-05-21T19:34:27.297Z,19.80
2023-05-21T19:36:54.267Z,19.70
2023-05-21T19:39:21.374Z,19.60
2023-05-21T19:41:48.229Z,19.60
2023-05-21T19:44:15.255Z,19.40
2023-05-21T19:46:42.079Z,19.50
2023-05-21T19:49:10.936Z,19.40
2023-05-21T19:51:37.714Z,19.40
2023-05-21T19:54:04.493Z,19.40
2023-05-21T19:56:31.235Z,19.50
2023-05-21T19:58:58.010Z,19.40
2023-05-21T20:01:25.342Z,19.40
2023-05-21T20:03:52.303Z,19.20
2023-05-21T20:06:20.559Z,19.10
2023-05-21T20:08:47.761Z,19.10
2023-05-21T20:11:14.630Z,18.90
2023-05-21T20:13:42.151Z,18.80
2023-05-21T20:16:10.517Z,18.90
2023-05-21T20:18:37.466Z,18.90
2023-05-21T20:21:06.045Z,18.80
2023-05-21T20:23:32.875Z,18.80
2023-05-21T20:25:59.681Z,18.70
2023-05-21T20:28:26.462Z,18.70
2023-05-21T20:31:00.782Z,18.60
2023-05-21T20:33:30.766Z,18.70
2023-05-21T20:35:57.900Z,18.80
2023-05-21T20:38:26.306Z,18.70
2023-05-21T20:40:55.088Z,18.70
2023-05-21T20:43:24.307Z,18.70
2023-05-21T20:45:59.918Z,18.60
2023-05-21T20:48:31.910Z,18.60
2023-05-21T20:51:04.430Z,18.60
2023-05-21T20:53:31.346Z,18.60
2023-05-21T20:55:58.079Z,18.40
2023-05-21T20:58:25.422Z,18.50
2023-05-21T21:00:52.405Z,18.60
2023-05-21T21:03:21.464Z,18.60
2023-05-21T21:05:48.574Z,18.60
2023-05-21T21:08:16.159Z,18.50
2023-05-21T21:10:46.670Z,18.40
2023-05-21T21:13:14.817Z,18.40
2023-05-21T21:15:43.651Z,18.40
2023-05-21T21:18:12.363Z,18.40
2023-05-21T21:20:41.209Z,18.40
2023-05-21T21:23:10.788Z,18.40
2023-05-21T21:25:37.626Z,18.40
2023-05-21T21:28:04.566Z,18.40
2023-05-21T21:30:31.475Z,18.30
2023-05-21T21:32:58.462Z,18.20
2023-05-21T21:35:25.338Z,18.00
2023-05-21T21:37:52.118Z,18.00
2023-05-21T21:40:18.912Z,18.10
2023-05-21T21:42:46.706Z,17.90
2023-05-21T21:45:14.550Z,17.90
2023-05-21T21:47:41.442Z,17.80
2023-05-21T21:50:08.883Z,17.70
2023-05-21T21:52:40.178Z,17.60
2023-05-21T21:55:11.363Z,17.50
2023-05-21T21:57:39.619Z,17.50
2023-05-21T22:00:15.781Z,17.40
2023-05-21T22:02:44.177Z,17.30
2023-05-21T22:05:14.557Z,17.20
2023-05-21T22:07:47.046Z,17.30
2023-05-21T22:10:17.829Z,17.30
2023-05-21T22:12:46.144Z,17.30
2023-05-21T22:15:28.459Z,17.20
2023-05-21T22:17:56.075Z,17.20
2023-05-21T22:20:23.323Z,17.10
2023-05-21T22:22:54.087Z,17.10
2023-05-21T22:25:22.126Z,17.00
2023-05-21T22:27:49.139Z,17.10
2023-05-21T22:30:16.187Z,17.00
2023-05-21T22:32:43.159Z,17.00
2023-05-21T22:35:10.353Z,16.90
2023-05-21T22:37:37.436Z,16.80
2023-05-21T22:40:08.457Z,16.90
2023-05-21T22:42:36.456Z,16.90
2023-05-21T22:45:03.958Z,17.00
2023-05-21T22:47:32.169Z,16.80
2023-05-21T22:50:00.635Z,16.80
2023-05-21T22:52:28.786Z,16.90
2023-05-21T22:54:55.936Z,16.90
2023-05-21T22:57:22.693Z,16.60
2023-05-21T22:59:51.856Z,16.40
2023-05-21T23:02:18.839Z,16.50
2023-05-21T23:04:45.864Z,16.30
2023-05-21T23:07:12.706Z,16.30
2023-05-21T23:09:39.680Z,16.30
2023-05-21T23:12:07.383Z,16.30
2023-05-21T23:14:34.333Z,16.30
2023-05-21T23:17:04.521Z,16.30
2023-05-21T23:19:32.729Z,16.20
2023-05-21T23:22:00.277Z,16.20
2023-05-21T23:24:29.255Z,16.20
2023-05-21T23:27:01.613Z,16.30
2023-05-21T23:29:29.796Z,16.30
2023-05-21T23:31:56.753Z,16.30
2023-05-21T23:34:24.749Z,16.40
2023-05-21T23:36:51.945Z,16.60
2023-05-21T23:39:18.734Z,16.90
2023-05-21T23:41:45.717Z,17.00
2023-05-21T23:44:12.852Z,17.10
2023-05-21T23:46:39.599Z,17.20
2023-05-21T23:49:06.366Z,17.30
2023-05-21T23:51:33.244Z,17.40
2023-05-21T23:54:00.175Z,17.40
2023-05-21T23:56:26.944Z,17.50
2023-05-21T23:58:53.737Z,17.50
